sensor_id;sensor_type;location;lat;lon;timestamp;P1;durP1;ratioP1;P2;durP2;ratioP2
10088;SDS011;51898;49.864;8.550;2023-02-26T00:01:38;3.93;;;2.93;;
10088;SDS011;51898;49.864;8.550;2023-02-26T00:04:40;3.33;;;2.73;;
10088;SDS011;51898;49.864;8.550;2023-02-26T00:07:42;10.60;;;2.77;;
10088;SDS011;51898;49.864;8.550;2023-02-26T00:10:43;2.70;;;2.43;;
10088;SDS011;51898;49.864;8.550;2023-02-26T00:13:45;5.03;;;2.97;;
10088;SDS011;51898;49.864;8.550;2023-02-26T00:17:07;3.40;;;2.80;;
10088;SDS011;51898;49.864;8.550;2023-02-26T00:20:26;6.27;;;3.47;;
10088;SDS011;51898;49.864;8.550;2023-02-26T00:23:28;3.50;;;2.50;;
10088;SDS011;51898;49.864;8.550;2023-02-26T00:26:30;7.47;;;3.17;;
10088;SDS011;51898;49.864;8.550;2023-02-26T00:29:32;3.23;;;2.60;;
10088;SDS011;51898;49.864;8.550;2023-02-26T00:32:34;9.30;;;3.07;;
10088;SDS011;51898;49.864;8.550;2023-02-26T00:35:37;2.93;;;2.67;;
10088;SDS011;51898;49.864;8.550;2023-02-26T00:38:38;3.77;;;2.70;;
10088;SDS011;51898;49.864;8.550;2023-02-26T00:41:45;5.27;;;2.87;;
10088;SDS011;51898;49.864;8.550;2023-02-26T00:44:47;3.13;;;2.83;;
10088;SDS011;51898;49.864;8.550;2023-02-26T00:51:07;5.50;;;3.50;;
10088;SDS011;51898;49.864;8.550;2023-02-26T00:54:26;8.20;;;5.27;;
10088;SDS011;51898;49.864;8.550;2023-02-26T00:57:29;6.00;;;4.40;;
10088;SDS011;51898;49.864;8.550;2023-02-26T01:00:31;11.90;;;7.30;;
10088;SDS011;51898;49.864;8.550;2023-02-26T01:03:32;5.30;;;3.63;;
10088;SDS011;51898;49.864;8.550;2023-02-26T01:06:35;10.03;;;5.73;;
10088;SDS011;51898;49.864;8.550;2023-02-26T01:09:43;8.80;;;5.87;;
10088;SDS011;51898;49.864;8.550;2023-02-26T01:12:45;5.40;;;3.20;;
10088;SDS011;51898;49.864;8.550;2023-02-26T01:15:49;7.17;;;3.90;;
10088;SDS011;51898;49.864;8.550;2023-02-26T01:19:01;4.40;;;3.47;;
10088;SDS011;51898;49.864;8.550;2023-02-26T01:22:21;4.40;;;2.97;;
10088;SDS011;51898;49.864;8.550;2023-02-26T01:25:28;3.63;;;3.10;;
10088;SDS011;51898;49.864;8.550;2023-02-26T01:28:36;6.00;;;3.97;;
10088;SDS011;51898;49.864;8.550;2023-02-26T01:31:47;4.30;;;3.00;;
10088;SDS011;51898;49.864;8.550;2023-02-26T01:35:36;5.50;;;3.50;;
10088;SDS011;51898;49.864;8.550;2023-02-26T01:38:44;7.83;;;3.50;;
10088;SDS011;51898;49.864;8.550;2023-02-26T01:41:57;8.53;;;3.80;;
10088;SDS011;51898;49.864;8.550;2023-02-26T01:45:14;5.63;;;3.20;;
10088;SDS011;51898;49.864;8.550;2023-02-26T01:48:20;8.00;;;3.60;;
10088;SDS011;51898;49.864;8.550;2023-02-26T01:54:48;3.53;;;3.20;;
10088;SDS011;51898;49.864;8.550;2023-02-26T01:57:50;6.67;;;4.00;;
10088;SDS011;51898;49.864;8.550;2023-02-26T02:04:06;4.60;;;3.60;;
10088;SDS011;51898;49.864;8.550;2023-02-26T02:07:11;3.00;;;2.80;;
10088;SDS011;51898;49.864;8.550;2023-02-26T02:10:13;3.00;;;2.70;;
10088;SDS011;51898;49.864;8.550;2023-02-26T02:13:34;5.20;;;3.00;;
10088;SDS011;51898;49.864;8.550;2023-02-26T02:19:54;4.33;;;2.90;;
10088;SDS011;51898;49.864;8.550;2023-02-26T02:26:47;4.10;;;2.57;;
10088;SDS011;51898;49.864;8.550;2023-02-26T02:33:27;5.70;;;2.50;;
10088;SDS011;51898;49.864;8.550;2023-02-26T02:36:41;3.47;;;2.87;;
10088;SDS011;51898;49.864;8.550;2023-02-26T02:40:18;3.50;;;2.30;;
10088;SDS011;51898;49.864;8.550;2023-02-26T02:43:30;8.83;;;3.30;;
10088;SDS011;51898;49.864;8.550;2023-02-26T02:46:35;3.97;;;2.30;;
10088;SDS011;51898;49.864;8.550;2023-02-26T02:49:41;3.70;;;2.40;;
10088;SDS011;51898;49.864;8.550;2023-02-26T02:52:53;7.10;;;2.70;;
10088;SDS011;51898;49.864;8.550;2023-02-26T02:56:03;3.37;;;2.30;;
10088;SDS011;51898;49.864;8.550;2023-02-26T02:59:17;6.53;;;2.53;;
10088;SDS011;51898;49.864;8.550;2023-02-26T03:02:25;4.40;;;2.37;;
10088;SDS011;51898;49.864;8.550;2023-02-26T03:05:37;3.87;;;1.60;;
10088;SDS011;51898;49.864;8.550;2023-02-26T03:08:40;2.67;;;1.90;;
10088;SDS011;51898;49.864;8.550;2023-02-26T03:11:43;4.80;;;2.00;;
10088;SDS011;51898;49.864;8.550;2023-02-26T03:14:45;2.73;;;2.47;;
10088;SDS011;51898;49.864;8.550;2023-02-26T03:17:52;6.30;;;3.50;;
10088;SDS011;51898;49.864;8.550;2023-02-26T03:30:39;5.27;;;3.30;;
10088;SDS011;51898;49.864;8.550;2023-02-26T03:34:45;6.33;;;2.17;;
10088;SDS011;51898;49.864;8.550;2023-02-26T03:37:53;2.70;;;1.90;;
10088;SDS011;51898;49.864;8.550;2023-02-26T03:41:03;2.70;;;1.60;;
10088;SDS011;51898;49.864;8.550;2023-02-26T03:44:15;5.63;;;1.50;;
10088;SDS011;51898;49.864;8.550;2023-02-26T03:47:20;1.80;;;1.53;;
10088;SDS011;51898;49.864;8.550;2023-02-26T03:53:33;3.40;;;1.40;;
10088;SDS011;51898;49.864;8.550;2023-02-26T03:56:44;2.50;;;1.30;;
10088;SDS011;51898;49.864;8.550;2023-02-26T03:59:47;2.43;;;1.37;;
10088;SDS011;51898;49.864;8.550;2023-02-26T04:02:57;5.03;;;1.53;;
10088;SDS011;51898;49.864;8.550;2023-02-26T04:06:02;2.33;;;1.50;;
10088;SDS011;51898;49.864;8.550;2023-02-26T04:09:04;3.73;;;1.30;;
10088;SDS011;51898;49.864;8.550;2023-02-26T04:12:06;2.50;;;1.70;;
10088;SDS011;51898;49.864;8.550;2023-02-26T04:15:08;1.73;;;1.63;;
10088;SDS011;51898;49.864;8.550;2023-02-26T04:18:10;2.07;;;1.40;;
10088;SDS011;51898;49.864;8.550;2023-02-26T04:21:13;4.90;;;1.83;;
10088;SDS011;51898;49.864;8.550;2023-02-26T04:24:16;4.33;;;2.07;;
10088;SDS011;51898;49.864;8.550;2023-02-26T04:27:18;3.50;;;2.10;;
10088;SDS011;51898;49.864;8.550;2023-02-26T04:30:20;4.63;;;2.20;;
10088;SDS011;51898;49.864;8.550;2023-02-26T04:33:22;2.47;;;1.80;;
10088;SDS011;51898;49.864;8.550;2023-02-26T04:36:24;5.33;;;2.20;;
10088;SDS011;51898;49.864;8.550;2023-02-26T04:39:26;4.33;;;2.50;;
10088;SDS011;51898;49.864;8.550;2023-02-26T04:42:28;3.10;;;1.93;;
10088;SDS011;51898;49.864;8.550;2023-02-26T04:45:29;4.17;;;2.43;;
10088;SDS011;51898;49.864;8.550;2023-02-26T04:48:31;6.70;;;2.27;;
10088;SDS011;51898;49.864;8.550;2023-02-26T04:51:33;4.80;;;2.37;;
10088;SDS011;51898;49.864;8.550;2023-02-26T04:54:34;4.07;;;2.00;;
10088;SDS011;51898;49.864;8.550;2023-02-26T04:57:37;7.23;;;2.37;;
10088;SDS011;51898;49.864;8.550;2023-02-26T05:00:40;8.23;;;2.07;;
10088;SDS011;51898;49.864;8.550;2023-02-26T05:03:41;4.20;;;2.30;;
10088;SDS011;51898;49.864;8.550;2023-02-26T05:06:43;2.40;;;1.80;;
10088;SDS011;51898;49.864;8.550;2023-02-26T05:09:45;5.97;;;2.33;;
10088;SDS011;51898;49.864;8.550;2023-02-26T05:12:46;2.10;;;1.90;;
10088;SDS011;51898;49.864;8.550;2023-02-26T05:15:48;5.30;;;2.60;;
10088;SDS011;51898;49.864;8.550;2023-02-26T05:18:50;3.70;;;2.13;;
10088;SDS011;51898;49.864;8.550;2023-02-26T05:21:51;5.00;;;2.27;;
10088;SDS011;51898;49.864;8.550;2023-02-26T05:24:53;7.23;;;2.43;;
10088;SDS011;51898;49.864;8.550;2023-02-26T05:27:55;3.73;;;1.97;;
10088;SDS011;51898;49.864;8.550;2023-02-26T05:30:57;4.10;;;2.27;;
10088;SDS011;51898;49.864;8.550;2023-02-26T05:33:58;3.07;;;2.30;;
10088;SDS011;51898;49.864;8.550;2023-02-26T05:37:00;2.83;;;1.93;;
10088;SDS011;51898;49.864;8.550;2023-02-26T05:40:03;2.50;;;2.10;;
10088;SDS011;51898;49.864;8.550;2023-02-26T05:43:06;6.47;;;2.50;;
10088;SDS011;51898;49.864;8.550;2023-02-26T05:46:08;4.23;;;3.00;;
10088;SDS011;51898;49.864;8.550;2023-02-26T05:49:10;4.50;;;2.30;;
10088;SDS011;51898;49.864;8.550;2023-02-26T05:52:12;4.00;;;2.43;;
10088;SDS011;51898;49.864;8.550;2023-02-26T05:55:14;3.33;;;2.30;;
10088;SDS011;51898;49.864;8.550;2023-02-26T05:58:16;2.83;;;2.27;;
10088;SDS011;51898;49.864;8.550;2023-02-26T06:01:18;5.30;;;2.60;;
10088;SDS011;51898;49.864;8.550;2023-02-26T06:04:20;3.50;;;2.40;;
10088;SDS011;51898;49.864;8.550;2023-02-26T06:07:21;3.93;;;2.77;;
10088;SDS011;51898;49.864;8.550;2023-02-26T06:10:24;8.63;;;2.87;;
10088;SDS011;51898;49.864;8.550;2023-02-26T06:13:26;2.73;;;2.50;;
10088;SDS011;51898;49.864;8.550;2023-02-26T06:16:28;4.70;;;2.73;;
10088;SDS011;51898;49.864;8.550;2023-02-26T06:19:30;4.00;;;2.20;;
10088;SDS011;51898;49.864;8.550;2023-02-26T06:22:31;5.40;;;3.10;;
10088;SDS011;51898;49.864;8.550;2023-02-26T06:25:33;5.03;;;3.00;;
10088;SDS011;51898;49.864;8.550;2023-02-26T06:28:35;7.13;;;3.03;;
10088;SDS011;51898;49.864;8.550;2023-02-26T06:31:36;5.40;;;3.00;;
10088;SDS011;51898;49.864;8.550;2023-02-26T06:34:38;3.80;;;2.70;;
10088;SDS011;51898;49.864;8.550;2023-02-26T06:37:40;3.47;;;3.03;;
10088;SDS011;51898;49.864;8.550;2023-02-26T06:40:41;5.03;;;2.37;;
10088;SDS011;51898;49.864;8.550;2023-02-26T06:43:43;4.37;;;2.73;;
10088;SDS011;51898;49.864;8.550;2023-02-26T06:46:45;6.60;;;2.80;;
10088;SDS011;51898;49.864;8.550;2023-02-26T06:49:46;5.07;;;2.10;;
10088;SDS011;51898;49.864;8.550;2023-02-26T06:52:49;6.80;;;2.57;;
10088;SDS011;51898;49.864;8.550;2023-02-26T06:55:51;5.83;;;2.90;;
10088;SDS011;51898;49.864;8.550;2023-02-26T06:58:53;2.30;;;2.00;;
10088;SDS011;51898;49.864;8.550;2023-02-26T07:01:55;3.90;;;2.40;;
10088;SDS011;51898;49.864;8.550;2023-02-26T07:04:57;2.33;;;2.13;;
10088;SDS011;51898;49.864;8.550;2023-02-26T07:07:59;2.60;;;2.17;;
10088;SDS011;51898;49.864;8.550;2023-02-26T07:11:01;5.60;;;2.67;;
10088;SDS011;51898;49.864;8.550;2023-02-26T07:14:03;4.17;;;2.20;;
10088;SDS011;51898;49.864;8.550;2023-02-26T07:17:04;2.17;;;1.90;;
10088;SDS011;51898;49.864;8.550;2023-02-26T07:20:06;3.87;;;2.20;;
10088;SDS011;51898;49.864;8.550;2023-02-26T07:23:10;5.07;;;2.20;;
10088;SDS011;51898;49.864;8.550;2023-02-26T07:26:12;3.37;;;1.90;;
10088;SDS011;51898;49.864;8.550;2023-02-26T07:29:13;2.27;;;1.70;;
10088;SDS011;51898;49.864;8.550;2023-02-26T07:32:15;5.93;;;2.50;;
10088;SDS011;51898;49.864;8.550;2023-02-26T07:35:17;5.77;;;2.40;;
10088;SDS011;51898;49.864;8.550;2023-02-26T07:38:19;2.90;;;1.73;;
10088;SDS011;51898;49.864;8.550;2023-02-26T07:41:21;5.57;;;2.60;;
10088;SDS011;51898;49.864;8.550;2023-02-26T07:44:23;2.60;;;2.13;;
10088;SDS011;51898;49.864;8.550;2023-02-26T07:47:25;2.77;;;1.80;;
10088;SDS011;51898;49.864;8.550;2023-02-26T07:50:27;2.47;;;2.00;;
10088;SDS011;51898;49.864;8.550;2023-02-26T07:53:29;2.07;;;1.90;;
10088;SDS011;51898;49.864;8.550;2023-02-26T07:56:30;1.67;;;1.53;;
10088;SDS011;51898;49.864;8.550;2023-02-26T07:59:32;2.07;;;1.97;;
10088;SDS011;51898;49.864;8.550;2023-02-26T08:02:34;11.63;;;2.93;;
10088;SDS011;51898;49.864;8.550;2023-02-26T08:05:36;3.10;;;2.47;;
10088;SDS011;51898;49.864;8.550;2023-02-26T08:08:37;4.70;;;1.73;;
10088;SDS011;51898;49.864;8.550;2023-02-26T08:11:39;2.37;;;2.10;;
10088;SDS011;51898;49.864;8.550;2023-02-26T08:14:43;2.73;;;1.73;;
10088;SDS011;51898;49.864;8.550;2023-02-26T08:17:44;4.73;;;1.97;;
10088;SDS011;51898;49.864;8.550;2023-02-26T08:20:46;8.13;;;2.70;;
10088;SDS011;51898;49.864;8.550;2023-02-26T08:23:50;4.17;;;2.33;;
10088;SDS011;51898;49.864;8.550;2023-02-26T08:26:52;3.70;;;2.00;;
10088;SDS011;51898;49.864;8.550;2023-02-26T08:29:54;3.00;;;2.17;;
10088;SDS011;51898;49.864;8.550;2023-02-26T08:32:55;4.77;;;2.83;;
10088;SDS011;51898;49.864;8.550;2023-02-26T08:35:57;4.13;;;2.70;;
10088;SDS011;51898;49.864;8.550;2023-02-26T08:39:02;4.53;;;2.30;;
10088;SDS011;51898;49.864;8.550;2023-02-26T08:42:04;4.00;;;2.30;;
10088;SDS011;51898;49.864;8.550;2023-02-26T08:45:07;2.90;;;2.00;;
10088;SDS011;51898;49.864;8.550;2023-02-26T08:48:09;1.77;;;1.53;;
10088;SDS011;51898;49.864;8.550;2023-02-26T08:51:11;1.90;;;1.80;;
10088;SDS011;51898;49.864;8.550;2023-02-26T08:54:13;2.50;;;1.70;;
10088;SDS011;51898;49.864;8.550;2023-02-26T08:57:15;1.80;;;1.67;;
10088;SDS011;51898;49.864;8.550;2023-02-26T09:00:20;3.83;;;1.90;;
10088;SDS011;51898;49.864;8.550;2023-02-26T09:03:22;2.27;;;1.50;;
10088;SDS011;51898;49.864;8.550;2023-02-26T09:06:24;2.50;;;2.30;;
10088;SDS011;51898;49.864;8.550;2023-02-26T09:09:26;1.80;;;1.70;;
10088;SDS011;51898;49.864;8.550;2023-02-26T09:12:34;4.00;;;2.07;;
10088;SDS011;51898;49.864;8.550;2023-02-26T09:15:37;1.73;;;1.63;;
10088;SDS011;51898;49.864;8.550;2023-02-26T09:18:38;2.00;;;1.80;;
10088;SDS011;51898;49.864;8.550;2023-02-26T09:21:40;2.10;;;1.90;;
10088;SDS011;51898;49.864;8.550;2023-02-26T09:24:42;2.10;;;1.67;;
10088;SDS011;51898;49.864;8.550;2023-02-26T09:27:43;2.23;;;1.80;;
10088;SDS011;51898;49.864;8.550;2023-02-26T09:30:45;3.33;;;1.90;;
10088;SDS011;51898;49.864;8.550;2023-02-26T09:33:47;1.30;;;1.10;;
10088;SDS011;51898;49.864;8.550;2023-02-26T09:36:49;2.50;;;1.90;;
10088;SDS011;51898;49.864;8.550;2023-02-26T09:39:50;1.60;;;1.40;;
10088;SDS011;51898;49.864;8.550;2023-02-26T09:43:01;4.43;;;1.70;;
10088;SDS011;51898;49.864;8.550;2023-02-26T09:46:20;2.07;;;1.87;;
10088;SDS011;51898;49.864;8.550;2023-02-26T09:49:45;3.40;;;2.00;;
10088;SDS011;51898;49.864;8.550;2023-02-26T09:53:09;4.60;;;1.90;;
10088;SDS011;51898;49.864;8.550;2023-02-26T09:56:23;3.03;;;1.57;;
10088;SDS011;51898;49.864;8.550;2023-02-26T09:59:27;1.23;;;1.00;;
10088;SDS011;51898;49.864;8.550;2023-02-26T10:06:29;1.80;;;1.20;;
10088;SDS011;51898;49.864;8.550;2023-02-26T10:10:00;6.30;;;1.60;;
10088;SDS011;51898;49.864;8.550;2023-02-26T10:13:19;1.63;;;1.53;;
10088;SDS011;51898;49.864;8.550;2023-02-26T10:23:38;1.93;;;1.83;;
10088;SDS011;51898;49.864;8.550;2023-02-26T10:26:45;4.40;;;1.57;;
10088;SDS011;51898;49.864;8.550;2023-02-26T10:30:03;8.83;;;2.30;;
10088;SDS011;51898;49.864;8.550;2023-02-26T10:33:52;2.73;;;2.00;;
10088;SDS011;51898;49.864;8.550;2023-02-26T10:43:51;1.43;;;1.30;;
10088;SDS011;51898;49.864;8.550;2023-02-26T10:50:33;1.60;;;1.07;;
10088;SDS011;51898;49.864;8.550;2023-02-26T10:53:35;1.47;;;1.37;;
10088;SDS011;51898;49.864;8.550;2023-02-26T10:56:40;1.93;;;1.30;;
10088;SDS011;51898;49.864;8.550;2023-02-26T10:59:42;2.47;;;1.30;;
10088;SDS011;51898;49.864;8.550;2023-02-26T11:02:45;2.30;;;2.10;;
10088;SDS011;51898;49.864;8.550;2023-02-26T11:05:52;1.23;;;1.17;;
10088;SDS011;51898;49.864;8.550;2023-02-26T11:08:55;1.87;;;1.63;;
10088;SDS011;51898;49.864;8.550;2023-02-26T11:15:17;1.60;;;1.40;;
10088;SDS011;51898;49.864;8.550;2023-02-26T11:19:04;1.50;;;1.37;;
10088;SDS011;51898;49.864;8.550;2023-02-26T11:21:49;1.50;;;1.27;;
10088;SDS011;51898;49.864;8.550;2023-02-26T11:24:51;2.17;;;1.37;;
10088;SDS011;51898;49.864;8.550;2023-02-26T11:27:58;4.10;;;1.40;;
10088;SDS011;51898;49.864;8.550;2023-02-26T11:31:06;2.03;;;1.80;;
10088;SDS011;51898;49.864;8.550;2023-02-26T11:34:11;4.67;;;1.70;;
10088;SDS011;51898;49.864;8.550;2023-02-26T11:37:13;1.63;;;1.40;;
10088;SDS011;51898;49.864;8.550;2023-02-26T11:40:26;1.73;;;1.53;;
10088;SDS011;51898;49.864;8.550;2023-02-26T11:43:35;1.50;;;1.40;;
10088;SDS011;51898;49.864;8.550;2023-02-26T11:46:48;1.67;;;1.43;;
10088;SDS011;51898;49.864;8.550;2023-02-26T11:49:59;1.53;;;1.43;;
10088;SDS011;51898;49.864;8.550;2023-02-26T11:53:05;2.83;;;1.60;;
10088;SDS011;51898;49.864;8.550;2023-02-26T11:56:24;1.77;;;1.40;;
10088;SDS011;51898;49.864;8.550;2023-02-26T11:59:34;1.30;;;1.20;;
10088;SDS011;51898;49.864;8.550;2023-02-26T12:02:41;1.33;;;1.23;;
10088;SDS011;51898;49.864;8.550;2023-02-26T12:05:43;7.90;;;1.50;;
10088;SDS011;51898;49.864;8.550;2023-02-26T12:08:45;1.30;;;1.20;;
10088;SDS011;51898;49.864;8.550;2023-02-26T12:11:50;2.07;;;1.87;;
10088;SDS011;51898;49.864;8.550;2023-02-26T12:38:43;1.77;;;1.67;;
10088;SDS011;51898;49.864;8.550;2023-02-26T12:41:58;3.10;;;1.53;;
10088;SDS011;51898;49.864;8.550;2023-02-26T12:45:16;2.37;;;1.30;;
10088;SDS011;51898;49.864;8.550;2023-02-26T12:48:59;2.07;;;1.40;;
10088;SDS011;51898;49.864;8.550;2023-02-26T13:09:50;1.30;;;1.20;;
10088;SDS011;51898;49.864;8.550;2023-02-26T13:13:25;1.30;;;1.20;;
10088;SDS011;51898;49.864;8.550;2023-02-26T13:17:05;1.17;;;1.10;;
10088;SDS011;51898;49.864;8.550;2023-02-26T13:23:20;1.33;;;1.10;;
10088;SDS011;51898;49.864;8.550;2023-02-26T13:26:25;4.73;;;1.10;;
10088;SDS011;51898;49.864;8.550;2023-02-26T13:29:52;2.00;;;1.80;;
10088;SDS011;51898;49.864;8.550;2023-02-26T13:32:56;1.43;;;1.33;;
10088;SDS011;51898;49.864;8.550;2023-02-26T13:36:02;1.73;;;1.20;;
10088;SDS011;51898;49.864;8.550;2023-02-26T13:39:14;1.70;;;1.23;;
10088;SDS011;51898;49.864;8.550;2023-02-26T13:52:30;1.50;;;1.40;;
10088;SDS011;51898;49.864;8.550;2023-02-26T13:55:45;1.70;;;1.60;;
10088;SDS011;51898;49.864;8.550;2023-02-26T13:58:51;1.60;;;1.50;;
10088;SDS011;51898;49.864;8.550;2023-02-26T14:05:27;1.63;;;1.53;;
10088;SDS011;51898;49.864;8.550;2023-02-26T14:11:45;1.30;;;1.20;;
10088;SDS011;51898;49.864;8.550;2023-02-26T14:18:23;2.23;;;1.97;;
10088;SDS011;51898;49.864;8.550;2023-02-26T14:24:32;1.60;;;1.50;;
10088;SDS011;51898;49.864;8.550;2023-02-26T14:27:43;8.00;;;1.70;;
10088;SDS011;51898;49.864;8.550;2023-02-26T14:30:49;1.63;;;1.53;;
10088;SDS011;51898;49.864;8.550;2023-02-26T14:34:42;1.30;;;1.30;;
10088;SDS011;51898;49.864;8.550;2023-02-26T14:37:37;1.57;;;1.40;;
10088;SDS011;51898;49.864;8.550;2023-02-26T14:40:47;9.33;;;3.80;;
10088;SDS011;51898;49.864;8.550;2023-02-26T14:43:55;1.63;;;1.30;;
10088;SDS011;51898;49.864;8.550;2023-02-26T14:47:17;1.00;;;1.00;;
10088;SDS011;51898;49.864;8.550;2023-02-26T14:50:20;2.33;;;1.43;;
10088;SDS011;51898;49.864;8.550;2023-02-26T14:53:33;4.43;;;1.40;;
10088;SDS011;51898;49.864;8.550;2023-02-26T15:00:06;1.60;;;1.50;;
10088;SDS011;51898;49.864;8.550;2023-02-26T15:07:04;1.47;;;1.37;;
10088;SDS011;51898;49.864;8.550;2023-02-26T15:20:54;2.00;;;1.20;;
10088;SDS011;51898;49.864;8.550;2023-02-26T15:24:21;1.60;;;1.50;;
10088;SDS011;51898;49.864;8.550;2023-02-26T15:27:23;2.07;;;1.37;;
10088;SDS011;51898;49.864;8.550;2023-02-26T15:30:25;1.83;;;1.70;;
10088;SDS011;51898;49.864;8.550;2023-02-26T15:33:29;3.93;;;1.43;;
10088;SDS011;51898;49.864;8.550;2023-02-26T15:36:31;1.17;;;1.17;;
10088;SDS011;51898;49.864;8.550;2023-02-26T15:39:33;1.40;;;1.30;;
10088;SDS011;51898;49.864;8.550;2023-02-26T15:42:36;1.57;;;1.30;;
10088;SDS011;51898;49.864;8.550;2023-02-26T15:45:40;1.53;;;1.33;;
10088;SDS011;51898;49.864;8.550;2023-02-26T15:48:44;2.00;;;1.80;;
10088;SDS011;51898;49.864;8.550;2023-02-26T15:51:46;1.20;;;1.10;;
10088;SDS011;51898;49.864;8.550;2023-02-26T15:54:50;2.50;;;1.40;;
10088;SDS011;51898;49.864;8.550;2023-02-26T15:57:55;1.20;;;1.10;;
10088;SDS011;51898;49.864;8.550;2023-02-26T16:01:01;1.57;;;1.20;;
10088;SDS011;51898;49.864;8.550;2023-02-26T16:04:05;1.73;;;0.93;;
10088;SDS011;51898;49.864;8.550;2023-02-26T16:07:12;1.30;;;1.20;;
10088;SDS011;51898;49.864;8.550;2023-02-26T16:10:33;1.13;;;1.13;;
10088;SDS011;51898;49.864;8.550;2023-02-26T16:13:39;1.10;;;1.10;;
10088;SDS011;51898;49.864;8.550;2023-02-26T16:16:45;1.40;;;1.30;;
10088;SDS011;51898;49.864;8.550;2023-02-26T16:19:49;1.90;;;1.70;;
10088;SDS011;51898;49.864;8.550;2023-02-26T16:22:55;1.53;;;1.43;;
10088;SDS011;51898;49.864;8.550;2023-02-26T16:26:14;1.77;;;1.20;;
10088;SDS011;51898;49.864;8.550;2023-02-26T16:29:23;1.50;;;1.40;;
10088;SDS011;51898;49.864;8.550;2023-02-26T16:32:28;5.23;;;1.47;;
10088;SDS011;51898;49.864;8.550;2023-02-26T16:35:37;1.33;;;1.23;;
10088;SDS011;51898;49.864;8.550;2023-02-26T16:38:47;1.87;;;1.40;;
10088;SDS011;51898;49.864;8.550;2023-02-26T16:42:12;2.40;;;1.40;;
10088;SDS011;51898;49.864;8.550;2023-02-26T16:48:38;3.13;;;1.50;;
10088;SDS011;51898;49.864;8.550;2023-02-26T16:51:46;2.20;;;1.50;;
10088;SDS011;51898;49.864;8.550;2023-02-26T16:54:52;2.93;;;1.40;;
10088;SDS011;51898;49.864;8.550;2023-02-26T16:57:59;1.53;;;1.43;;
10088;SDS011;51898;49.864;8.550;2023-02-26T17:01:08;2.17;;;1.60;;
10088;SDS011;51898;49.864;8.550;2023-02-26T17:04:16;1.53;;;1.43;;
10088;SDS011;51898;49.864;8.550;2023-02-26T17:07:29;1.40;;;1.30;;
10088;SDS011;51898;49.864;8.550;2023-02-26T17:10:35;1.50;;;1.40;;
10088;SDS011;51898;49.864;8.550;2023-02-26T17:17:22;1.63;;;1.40;;
10088;SDS011;51898;49.864;8.550;2023-02-26T17:20:24;1.80;;;1.43;;
10088;SDS011;51898;49.864;8.550;2023-02-26T17:23:28;1.30;;;1.20;;
10088;SDS011;51898;49.864;8.550;2023-02-26T17:26:32;2.30;;;2.10;;
10088;SDS011;51898;49.864;8.550;2023-02-26T17:29:34;2.37;;;1.80;;
10088;SDS011;51898;49.864;8.550;2023-02-26T17:32:41;1.80;;;1.70;;
10088;SDS011;51898;49.864;8.550;2023-02-26T17:35:43;1.87;;;1.77;;
10088;SDS011;51898;49.864;8.550;2023-02-26T17:38:46;2.13;;;1.60;;
10088;SDS011;51898;49.864;8.550;2023-02-26T17:41:48;2.00;;;1.90;;
10088;SDS011;51898;49.864;8.550;2023-02-26T17:44:50;3.43;;;1.70;;
10088;SDS011;51898;49.864;8.550;2023-02-26T17:47:52;2.30;;;1.87;;
10088;SDS011;51898;49.864;8.550;2023-02-26T17:50:54;1.87;;;1.60;;
10088;SDS011;51898;49.864;8.550;2023-02-26T17:53:56;1.70;;;1.60;;
10088;SDS011;51898;49.864;8.550;2023-02-26T17:56:58;1.73;;;1.63;;
10088;SDS011;51898;49.864;8.550;2023-02-26T18:00:00;2.63;;;1.87;;
10088;SDS011;51898;49.864;8.550;2023-02-26T18:03:02;1.77;;;1.60;;
10088;SDS011;51898;49.864;8.550;2023-02-26T18:06:04;2.10;;;1.90;;
10088;SDS011;51898;49.864;8.550;2023-02-26T18:09:09;1.67;;;1.57;;
10088;SDS011;51898;49.864;8.550;2023-02-26T18:12:18;2.40;;;1.57;;
10088;SDS011;51898;49.864;8.550;2023-02-26T18:15:21;1.80;;;1.70;;
10088;SDS011;51898;49.864;8.550;2023-02-26T18:18:23;2.20;;;1.87;;
10088;SDS011;51898;49.864;8.550;2023-02-26T18:21:26;3.63;;;1.80;;
10088;SDS011;51898;49.864;8.550;2023-02-26T18:24:28;2.60;;;1.60;;
10088;SDS011;51898;49.864;8.550;2023-02-26T18:27:32;2.73;;;1.60;;
10088;SDS011;51898;49.864;8.550;2023-02-26T18:30:34;2.00;;;1.80;;
10088;SDS011;51898;49.864;8.550;2023-02-26T18:33:40;1.60;;;1.50;;
10088;SDS011;51898;49.864;8.550;2023-02-26T18:36:44;1.70;;;1.40;;
10088;SDS011;51898;49.864;8.550;2023-02-26T18:39:46;1.67;;;1.50;;
10088;SDS011;51898;49.864;8.550;2023-02-26T18:42:48;2.40;;;1.70;;
10088;SDS011;51898;49.864;8.550;2023-02-26T18:45:50;2.20;;;1.70;;
10088;SDS011;51898;49.864;8.550;2023-02-26T18:48:52;2.70;;;1.73;;
10088;SDS011;51898;49.864;8.550;2023-02-26T18:51:54;3.00;;;2.13;;
10088;SDS011;51898;49.864;8.550;2023-02-26T18:54:56;3.13;;;1.60;;
10088;SDS011;51898;49.864;8.550;2023-02-26T18:57:57;2.17;;;1.80;;
10088;SDS011;51898;49.864;8.550;2023-02-26T19:01:01;2.27;;;1.60;;
10088;SDS011;51898;49.864;8.550;2023-02-26T19:04:04;3.33;;;1.73;;
10088;SDS011;51898;49.864;8.550;2023-02-26T19:07:07;1.97;;;1.87;;
10088;SDS011;51898;49.864;8.550;2023-02-26T19:10:09;5.53;;;1.67;;
10088;SDS011;51898;49.864;8.550;2023-02-26T19:13:14;2.83;;;1.80;;
10088;SDS011;51898;49.864;8.550;2023-02-26T19:16:16;3.10;;;1.87;;
10088;SDS011;51898;49.864;8.550;2023-02-26T19:19:22;2.20;;;1.90;;
10088;SDS011;51898;49.864;8.550;2023-02-26T19:22:24;2.17;;;1.67;;
10088;SDS011;51898;49.864;8.550;2023-02-26T19:25:26;2.33;;;1.80;;
10088;SDS011;51898;49.864;8.550;2023-02-26T19:28:29;2.20;;;1.60;;
10088;SDS011;51898;49.864;8.550;2023-02-26T19:31:32;2.20;;;1.40;;
10088;SDS011;51898;49.864;8.550;2023-02-26T19:34:36;1.73;;;1.30;;
10088;SDS011;51898;49.864;8.550;2023-02-26T19:37:38;1.80;;;1.70;;
10088;SDS011;51898;49.864;8.550;2023-02-26T19:40:40;3.60;;;1.60;;
10088;SDS011;51898;49.864;8.550;2023-02-26T19:43:42;4.13;;;1.20;;
10088;SDS011;51898;49.864;8.550;2023-02-26T19:46:44;2.10;;;1.60;;
10088;SDS011;51898;49.864;8.550;2023-02-26T19:49:46;3.00;;;1.80;;
10088;SDS011;51898;49.864;8.550;2023-02-26T19:52:48;5.53;;;1.77;;
10088;SDS011;51898;49.864;8.550;2023-02-26T19:55:50;1.50;;;1.40;;
10088;SDS011;51898;49.864;8.550;2023-02-26T19:58:52;2.50;;;1.90;;
10088;SDS011;51898;49.864;8.550;2023-02-26T20:01:53;3.50;;;1.67;;
10088;SDS011;51898;49.864;8.550;2023-02-26T20:04:55;2.30;;;1.43;;
10088;SDS011;51898;49.864;8.550;2023-02-26T20:07:57;3.90;;;1.53;;
10088;SDS011;51898;49.864;8.550;2023-02-26T20:10:59;3.50;;;2.30;;
10088;SDS011;51898;49.864;8.550;2023-02-26T20:14:02;2.67;;;1.60;;
10088;SDS011;51898;49.864;8.550;2023-02-26T20:17:04;2.23;;;1.50;;
10088;SDS011;51898;49.864;8.550;2023-02-26T20:20:06;1.73;;;1.63;;
10088;SDS011;51898;49.864;8.550;2023-02-26T20:23:08;3.53;;;2.10;;
10088;SDS011;51898;49.864;8.550;2023-02-26T20:26:11;2.17;;;1.97;;
10088;SDS011;51898;49.864;8.550;2023-02-26T20:29:14;2.90;;;2.03;;
10088;SDS011;51898;49.864;8.550;2023-02-26T20:32:18;2.80;;;2.00;;
10088;SDS011;51898;49.864;8.550;2023-02-26T20:35:20;3.57;;;1.80;;
10088;SDS011;51898;49.864;8.550;2023-02-26T20:38:22;5.47;;;2.50;;
10088;SDS011;51898;49.864;8.550;2023-02-26T20:41:24;2.67;;;2.20;;
10088;SDS011;51898;49.864;8.550;2023-02-26T20:44:27;2.53;;;2.33;;
10088;SDS011;51898;49.864;8.550;2023-02-26T20:47:29;4.17;;;2.20;;
10088;SDS011;51898;49.864;8.550;2023-02-26T20:50:32;4.80;;;2.67;;
10088;SDS011;51898;49.864;8.550;2023-02-26T20:53:35;2.90;;;2.13;;
10088;SDS011;51898;49.864;8.550;2023-02-26T20:56:36;3.90;;;2.40;;
10088;SDS011;51898;49.864;8.550;2023-02-26T20:59:38;4.83;;;2.50;;
10088;SDS011;51898;49.864;8.550;2023-02-26T21:02:41;3.03;;;2.20;;
10088;SDS011;51898;49.864;8.550;2023-02-26T21:05:44;2.50;;;2.30;;
10088;SDS011;51898;49.864;8.550;2023-02-26T21:08:46;3.10;;;2.20;;
10088;SDS011;51898;49.864;8.550;2023-02-26T21:11:51;4.87;;;2.77;;